createdAt,value
2019-05-03T00:00:37.646Z,9.50
2019-05-03T00:01:37.763Z,9.10
2019-05-03T00:02:37.605Z,8.90
2019-05-03T00:03:37.607Z,9.10
2019-05-03T00:04:37.571Z,8.90
2019-05-03T00:05:37.558Z,9.30
2019-05-03T00:06:37.590Z,8.70
2019-05-03T00:07:37.564Z,8.80
2019-05-03T00:08:37.534Z,8.60
2019-05-03T00:09:37.515Z,9.20
2019-05-03T00:10:37.532Z,9.20
2019-05-03T00:11:37.539Z,8.90
2019-05-03T00:12:37.498Z,9.10
2019-05-03T00:13:37.480Z,8.50
2019-05-03T00:14:37.473Z,9.00
2019-05-03T00:15:37.456Z,9.00
2019-05-03T00:16:37.485Z,9.00
2019-05-03T00:17:37.472Z,8.70
2019-05-03T00:18:37.439Z,8.60
2019-05-03T00:19:37.419Z,8.80
2019-05-03T00:20:37.412Z,9.00
2019-05-03T00:21:37.382Z,8.60
2019-05-03T00:22:37.401Z,8.70
2019-05-03T00:23:37.406Z,8.70
2019-05-03T00:24:37.351Z,9.00
2019-05-03T00:25:37.352Z,9.20
2019-05-03T00:26:37.329Z,8.80
2019-05-03T00:27:37.325Z,8.80
2019-05-03T00:28:37.344Z,9.00
2019-05-03T00:29:37.338Z,8.70
2019-05-03T00:30:37.291Z,9.50
2019-05-03T00:31:37.286Z,8.90
2019-05-03T00:32:37.261Z,9.00
2019-05-03T00:33:37.255Z,9.40
2019-05-03T00:34:37.276Z,8.90
2019-05-03T00:35:37.258Z,9.10
2019-05-03T00:36:37.228Z,9.30
2019-05-03T00:37:37.223Z,9.10
2019-05-03T00:38:37.193Z,8.60
2019-05-03T00:39:37.186Z,8.80
2019-05-03T00:40:37.226Z,8.40
2019-05-03T00:41:37.178Z,8.80
2019-05-03T00:42:37.170Z,8.70
2019-05-03T00:43:37.142Z,8.70
2019-05-03T00:44:37.141Z,9.20
2019-05-03T00:45:37.126Z,8.70
2019-05-03T00:46:37.141Z,8.50
2019-05-03T00:47:37.108Z,8.60
2019-05-03T00:48:37.094Z,8.40
2019-05-03T00:49:37.075Z,8.20
2019-05-03T00:50:37.088Z,8.40
2019-05-03T00:51:37.110Z,8.10
2019-05-03T00:52:37.049Z,7.40
2019-05-03T00:53:37.035Z,6.90
2019-05-03T00:54:37.033Z,6.70
2019-05-03T00:55:37.011Z,6.60
2019-05-03T00:56:36.999Z,6.70
2019-05-03T00:57:37.053Z,6.50
2019-05-03T00:58:36.987Z,6.70
2019-05-03T00:59:36.974Z,7.00
2019-05-03T01:00:36.972Z,6.80
2019-05-03T01:01:36.949Z,6.40
2019-05-03T01:02:36.983Z,6.90
2019-05-03T01:03:36.932Z,6.50
2019-05-03T01:04:36.914Z,7.40
2019-05-03T01:05:36.934Z,7.00
2019-05-03T01:06:36.923Z,7.30
2019-05-03T01:07:36.926Z,7.00
2019-05-03T01:08:36.891Z,6.70
2019-05-03T01:09:36.869Z,6.70
2019-05-03T01:10:36.853Z,6.50
2019-05-03T01:11:36.843Z,6.70
2019-05-03T01:12:36.831Z,5.90
2019-05-03T01:13:36.852Z,6.20
2019-05-03T01:14:36.802Z,6.40
2019-05-03T01:15:36.807Z,6.10
2019-05-03T01:16:36.798Z,6.30
2019-05-03T01:17:36.784Z,6.10
2019-05-03T01:18:36.803Z,6.10
2019-05-03T01:19:36.772Z,6.30
2019-05-03T01:20:36.742Z,6.20
2019-05-03T01:21:36.740Z,6.00
2019-05-03T01:22:36.723Z,6.50
2019-05-03T01:23:36.715Z,6.60
2019-05-03T01:24:36.734Z,6.40
2019-05-03T01:25:36.683Z,6.50
2019-05-03T01:26:36.679Z,6.80
2019-05-03T01:27:36.657Z,6.90
2019-05-03T01:28:36.660Z,7.20
2019-05-03T01:29:36.670Z,7.20
2019-05-03T01:30:36.635Z,7.30
2019-05-03T01:31:36.626Z,7.30
2019-05-03T01:32:36.614Z,7.10
2019-05-03T01:33:36.602Z,7.60
2019-05-03T01:34:36.597Z,7.30
2019-05-03T01:35:36.603Z,7.50
2019-05-03T01:36:36.561Z,7.00
2019-05-03T01:37:36.552Z,7.60
2019-05-03T01:38:36.562Z,7.70
2019-05-03T01:39:36.533Z,7.50
2019-05-03T01:40:36.572Z,7.30
2019-05-03T01:41:36.503Z,7.40
2019-05-03T01:42:36.493Z,7.30
2019-05-03T01:43:36.486Z,7.00
2019-05-03T01:44:36.507Z,7.10
2019-05-03T01:45:36.495Z,7.40
2019-05-03T01:46:36.474Z,7.40
2019-05-03T01:47:36.449Z,7.30
2019-05-03T01:48:36.431Z,6.60
2019-05-03T01:49:36.424Z,7.30
2019-05-03T01:50:36.407Z,7.30
2019-05-03T01:51:36.444Z,7.50
2019-05-03T01:52:36.382Z,7.10
2019-05-03T01:53:36.454Z,7.50
2019-05-03T01:54:36.372Z,7.30
2019-05-03T01:55:44.514Z,7.20
2019-05-03T01:56:36.377Z,7.40
2019-05-03T01:57:36.379Z,7.30
2019-05-03T01:58:36.336Z,7.60
2019-05-03T01:59:36.309Z,7.70
2019-05-03T02:00:36.302Z,7.10
2019-05-03T02:01:36.301Z,7.30
2019-05-03T02:02:36.318Z,7.70
2019-05-03T02:03:36.276Z,7.10
2019-05-03T02:04:36.255Z,7.30
2019-05-03T02:05:36.240Z,7.30
2019-05-03T02:06:36.291Z,7.30
2019-05-03T02:07:36.257Z,7.40
2019-05-03T02:08:36.214Z,7.70
2019-05-03T02:09:36.207Z,7.60
2019-05-03T02:10:36.215Z,7.10
2019-05-03T02:11:36.174Z,7.80
2019-05-03T02:12:36.227Z,8.10
2019-05-03T02:13:36.188Z,7.50
2019-05-03T02:14:36.199Z,7.50
2019-05-03T02:15:36.148Z,7.30
2019-05-03T02:16:36.125Z,7.60
2019-05-03T02:17:36.113Z,7.50
2019-05-03T02:18:36.111Z,7.50
2019-05-03T02:19:36.127Z,7.60
2019-05-03T02:20:36.090Z,7.20
2019-05-03T02:21:36.085Z,7.50
2019-05-03T02:22:36.054Z,7.60
2019-05-03T02:23:36.061Z,7.80
2019-05-03T02:24:36.078Z,7.70
2019-05-03T02:25:36.059Z,7.70
2019-05-03T02:26:36.022Z,7.20
2019-05-03T02:27:36.019Z,6.50
2019-05-03T02:28:35.991Z,5.60
2019-05-03T02:29:35.986Z,5.50
2019-05-03T02:30:36.005Z,4.90
2019-05-03T02:31:35.980Z,5.00
2019-05-03T02:32:35.959Z,5.10
2019-05-03T02:33:35.938Z,4.90
2019-05-03T02:34:35.940Z,4.80
2019-05-03T02:35:35.954Z,4.50
2019-05-03T02:36:35.938Z,4.20
2019-05-03T02:37:35.904Z,4.10
2019-05-03T02:38:35.902Z,4.30
2019-05-03T02:39:36.073Z,4.80
2019-05-03T02:40:35.865Z,4.20
2019-05-03T02:41:39.102Z,3.90
2019-05-03T02:42:35.841Z,4.00
2019-05-03T02:43:36.554Z,3.80
2019-05-03T02:44:35.834Z,4.30
2019-05-03T02:45:35.805Z,4.10
2019-05-03T02:46:36.303Z,3.80
2019-05-03T02:47:35.858Z,4.30
2019-05-03T02:48:36.527Z,4.00
2019-05-03T02:49:35.771Z,4.20
2019-05-03T02:50:36.192Z,4.00
2019-05-03T02:51:36.103Z,3.70
2019-05-03T02:52:37.200Z,4.20
2019-05-03T02:53:36.135Z,3.90
2019-05-03T02:54:35.713Z,3.70
2019-05-03T02:55:36.429Z,3.50
2019-05-03T02:56:36.037Z,4.00
2019-05-03T02:57:35.724Z,3.80
2019-05-03T02:58:35.892Z,4.00
2019-05-03T02:59:35.675Z,3.60
2019-05-03T03:00:36.152Z,3.50
2019-05-03T03:01:35.922Z,3.50
2019-05-03T03:02:36.519Z,3.40
2019-05-03T03:03:36.518Z,3.10
2019-05-03T03:04:35.612Z,3.10
2019-05-03T03:05:35.589Z,3.40
2019-05-03T03:06:36.645Z,3.10
2019-05-03T03:07:37.717Z,3.00
2019-05-03T03:08:36.878Z,2.90
2019-05-03T03:09:36.123Z,2.90
2019-05-03T03:10:35.663Z,3.00
2019-05-03T03:11:35.657Z,3.30
2019-05-03T03:12:35.766Z,3.20
2019-05-03T03:13:36.923Z,2.80
2019-05-03T03:14:36.219Z,2.80
2019-05-03T03:15:36.285Z,3.10
2019-05-03T03:16:36.317Z,3.10
2019-05-03T03:17:36.432Z,3.00
2019-05-03T03:18:36.445Z,3.00
2019-05-03T03:19:35.447Z,3.00
2019-05-03T03:20:35.733Z,3.20
2019-05-03T03:21:36.028Z,3.10
2019-05-03T03:22:36.260Z,3.00
2019-05-03T03:23:35.647Z,3.10
2019-05-03T03:24:36.103Z,3.10
2019-05-03T03:25:36.136Z,3.10
2019-05-03T03:26:41.560Z,3.00
2019-05-03T03:27:36.138Z,3.30
2019-05-03T03:28:35.975Z,3.00
2019-05-03T03:29:35.903Z,3.50
2019-05-03T03:30:38.042Z,3.00
2019-05-03T03:31:37.815Z,3.10
2019-05-03T03:32:38.407Z,3.20
2019-05-03T03:33:39.729Z,3.10
2019-05-03T03:34:38.749Z,3.10
2019-05-03T03:35:38.121Z,3.10
2019-05-03T03:36:49.790Z,3.00
2019-05-03T03:37:35.501Z,3.70
2019-05-03T03:38:35.564Z,3.30
2019-05-03T03:39:36.073Z,3.30
2019-05-03T03:40:35.879Z,3.40
2019-05-03T03:41:35.415Z,3.10
2019-05-03T03:42:36.008Z,3.20
2019-05-03T03:43:35.548Z,3.10
2019-05-03T03:44:36.255Z,3.40
2019-05-03T03:45:35.933Z,3.60
2019-05-03T03:46:35.849Z,3.50
2019-05-03T03:47:35.751Z,3.80
2019-05-03T03:48:35.520Z,3.40
2019-05-03T03:49:35.673Z,3.40
2019-05-03T03:50:35.858Z,3.30
2019-05-03T03:51:35.226Z,3.40
2019-05-03T03:52:36.058Z,3.40
2019-05-03T03:53:35.725Z,3.30
2019-05-03T03:54:35.656Z,3.30
2019-05-03T03:55:35.430Z,3.50
2019-05-03T03:56:40.883Z,3.50
2019-05-03T03:57:36.040Z,3.60
2019-05-03T03:58:35.932Z,3.40
2019-05-03T03:59:36.397Z,3.70
2019-05-03T04:00:36.179Z,3.80
2019-05-03T04:01:35.114Z,3.90
2019-05-03T04:02:35.508Z,3.40
2019-05-03T04:03:36.247Z,3.70
2019-05-03T04:04:35.880Z,3.90
2019-05-03T04:05:35.870Z,3.90
2019-05-03T04:06:35.792Z,4.00
2019-05-03T04:07:36.106Z,4.30
2019-05-03T04:08:36.017Z,4.40
2019-05-03T04:09:36.408Z,4.30
2019-05-03T04:10:35.363Z,4.70
2019-05-03T04:11:35.102Z,4.60
2019-05-03T04:12:35.271Z,4.40
2019-05-03T04:13:36.087Z,4.30
2019-05-03T04:14:36.149Z,4.40
2019-05-03T04:15:37.090Z,4.30
2019-05-03T04:16:36.430Z,4.50
2019-05-03T04:17:36.112Z,5.40
2019-05-03T04:18:36.126Z,4.60
2019-05-03T04:19:36.439Z,4.70
2019-05-03T04:20:36.016Z,4.70
2019-05-03T04:21:35.860Z,5.00
2019-05-03T04:22:36.270Z,5.20
2019-05-03T04:23:35.902Z,4.80
2019-05-03T04:24:35.225Z,5.40
2019-05-03T04:25:35.631Z,5.40
2019-05-03T04:26:35.767Z,5.00
2019-05-03T04:27:36.464Z,4.80
2019-05-03T04:28:36.134Z,4.10
2019-05-03T04:29:35.689Z,4.10
2019-05-03T04:30:36.347Z,3.40
2019-05-03T04:31:36.812Z,3.70
2019-05-03T04:32:35.989Z,3.20
2019-05-03T04:33:35.891Z,2.70
2019-05-03T04:34:35.830Z,2.50
2019-05-03T04:35:36.267Z,2.00
2019-05-03T04:36:35.800Z,2.00
2019-05-03T04:37:35.886Z,1.70
2019-05-03T04:38:35.472Z,1.70
2019-05-03T04:39:35.931Z,1.90
2019-05-03T04:40:35.766Z,1.70
2019-05-03T04:41:35.702Z,1.50
2019-05-03T04:42:35.700Z,1.60
2019-05-03T04:43:35.667Z,1.50
2019-05-03T04:44:35.808Z,1.60
2019-05-03T04:45:36.770Z,1.50
2019-05-03T04:46:35.860Z,1.40
2019-05-03T04:47:35.766Z,1.50
2019-05-03T04:48:35.800Z,1.50
2019-05-03T04:49:36.224Z,1.50
2019-05-03T04:50:36.668Z,1.40
2019-05-03T04:51:35.040Z,1.60
2019-05-03T04:52:36.143Z,1.60
2019-05-03T04:53:35.761Z,1.70
2019-05-03T04:54:35.622Z,1.50
2019-05-03T04:55:36.317Z,1.60
2019-05-03T04:56:35.979Z,1.50
2019-05-03T04:57:40.440Z,1.60
2019-05-03T04:58:36.403Z,1.60
2019-05-03T04:59:35.865Z,1.60
2019-05-03T05:00:35.856Z,1.80
2019-05-03T05:01:35.266Z,1.60
2019-05-03T05:02:35.424Z,1.80
2019-05-03T05:03:36.238Z,1.70
2019-05-03T05:04:35.781Z,1.50
2019-05-03T05:05:36.380Z,1.50
2019-05-03T05:06:35.042Z,1.60
2019-05-03T05:07:35.067Z,1.70
2019-05-03T05:08:35.862Z,1.60
2019-05-03T05:09:34.918Z,1.70
2019-05-03T05:10:36.296Z,1.60
2019-05-03T05:11:35.100Z,1.70
2019-05-03T05:12:35.540Z,1.70
2019-05-03T05:13:35.645Z,1.70
2019-05-03T05:14:35.243Z,1.80
2019-05-03T05:15:35.393Z,1.70
2019-05-03T05:16:35.643Z,1.80
2019-05-03T05:17:35.486Z,1.60
2019-05-03T05:18:35.300Z,2.00
2019-05-03T05:19:35.702Z,1.80
2019-05-03T05:20:35.093Z,1.70
2019-05-03T05:21:35.527Z,1.70
2019-05-03T05:22:34.961Z,1.90
2019-05-03T05:23:35.348Z,1.90
2019-05-03T05:24:34.643Z,1.90
2019-05-03T05:25:35.469Z,1.90
2019-05-03T05:26:35.309Z,1.90
2019-05-03T05:27:34.627Z,2.10
2019-05-03T05:28:35.512Z,2.10
2019-05-03T05:29:34.619Z,2.30
2019-05-03T05:30:35.343Z,2.10
2019-05-03T05:31:35.638Z,2.10
2019-05-03T05:32:35.024Z,2.00
2019-05-03T05:33:35.347Z,2.10
2019-05-03T05:34:34.984Z,2.40
2019-05-03T05:35:35.252Z,2.30
2019-05-03T05:36:34.738Z,2.20
2019-05-03T05:37:35.239Z,2.00
2019-05-03T05:38:34.656Z,2.70
2019-05-03T05:39:35.622Z,2.50
2019-05-03T05:40:34.957Z,2.60
2019-05-03T05:41:34.766Z,2.60
2019-05-03T05:42:35.079Z,2.60
2019-05-03T05:43:35.562Z,2.40
2019-05-03T05:44:35.240Z,2.40
2019-05-03T05:45:34.826Z,2.70
2019-05-03T05:46:35.174Z,2.70
2019-05-03T05:47:34.536Z,2.40
2019-05-03T05:48:34.915Z,2.40
2019-05-03T05:49:35.090Z,2.40
2019-05-03T05:50:34.597Z,2.20
2019-05-03T05:51:35.328Z,2.40
2019-05-03T05:52:34.621Z,2.60
2019-05-03T05:53:35.745Z,2.50
2019-05-03T05:54:35.072Z,2.60
2019-05-03T05:55:34.464Z,2.70
2019-05-03T05:56:35.335Z,2.50
2019-05-03T05:57:34.632Z,2.50
2019-05-03T05:58:34.799Z,2.50
2019-05-03T05:59:35.026Z,2.60
2019-05-03T06:00:35.787Z,2.40
2019-05-03T06:01:35.315Z,2.60
2019-05-03T06:02:35.898Z,2.40
2019-05-03T06:03:34.414Z,2.30
2019-05-03T06:04:34.899Z,2.50
2019-05-03T06:05:35.428Z,2.40
2019-05-03T06:06:34.816Z,2.40
2019-05-03T06:07:35.125Z,2.60
2019-05-03T06:08:35.346Z,2.70
2019-05-03T06:09:34.414Z,2.50
2019-05-03T06:10:34.805Z,2.50
2019-05-03T06:11:34.742Z,2.50
2019-05-03T06:12:35.268Z,2.30
2019-05-03T06:13:34.445Z,2.30
2019-05-03T06:14:34.653Z,2.60
2019-05-03T06:15:34.494Z,2.20
2019-05-03T06:16:34.855Z,2.50
2019-05-03T06:17:34.831Z,2.40
2019-05-03T06:18:35.261Z,2.30
2019-05-03T06:19:34.545Z,2.70
2019-05-03T06:20:34.922Z,2.30
2019-05-03T06:21:35.201Z,2.00
2019-05-03T06:22:34.566Z,2.50
2019-05-03T06:23:34.759Z,2.30
2019-05-03T06:24:34.917Z,2.30
2019-05-03T06:25:35.286Z,2.50
2019-05-03T06:26:34.681Z,2.20
2019-05-03T06:27:34.712Z,2.30
2019-05-03T06:28:35.125Z,2.20
2019-05-03T06:29:35.092Z,2.50
2019-05-03T06:30:35.068Z,2.40
2019-05-03T06:31:34.406Z,2.40
2019-05-03T06:32:34.577Z,2.30
2019-05-03T06:33:34.722Z,2.30
2019-05-03T06:34:35.340Z,2.30
2019-05-03T06:35:34.577Z,2.20
2019-05-03T06:36:35.335Z,2.10
2019-05-03T06:37:35.312Z,2.00
2019-05-03T06:38:34.409Z,2.20
2019-05-03T06:39:35.064Z,2.20
2019-05-03T06:40:35.265Z,2.40
2019-05-03T06:41:35.209Z,2.30
2019-05-03T06:42:33.209Z,2.00
2019-05-03T06:43:34.862Z,2.20
2019-05-03T06:44:34.941Z,2.20
2019-05-03T06:45:35.232Z,2.00
2019-05-03T06:46:35.544Z,2.30
2019-05-03T06:47:34.855Z,2.20
2019-05-03T06:48:34.800Z,2.30
2019-05-03T06:49:34.585Z,2.40
2019-05-03T06:50:34.794Z,2.30
2019-05-03T06:51:34.969Z,2.30
2019-05-03T06:52:35.083Z,2.30
2019-05-03T06:53:34.541Z,2.40
2019-05-03T06:54:34.642Z,2.10
2019-05-03T06:55:35.093Z,2.50
2019-05-03T06:56:34.955Z,2.40
2019-05-03T06:57:33.078Z,2.10
2019-05-03T06:58:34.271Z,2.50
2019-05-03T06:59:33.018Z,2.10
2019-05-03T07:00:34.933Z,2.50
2019-05-03T07:01:34.483Z,2.20
2019-05-03T07:02:32.996Z,2.30
2019-05-03T07:03:33.021Z,2.20
2019-05-03T07:04:34.590Z,2.00
2019-05-03T07:05:32.957Z,2.20
2019-05-03T07:06:39.597Z,2.30
2019-05-03T07:07:32.958Z,2.30
2019-05-03T07:08:34.472Z,2.50
2019-05-03T07:09:32.948Z,2.40
2019-05-03T07:10:32.892Z,2.40
2019-05-03T07:11:34.728Z,2.60
2019-05-03T07:12:32.933Z,2.10
2019-05-03T07:13:34.583Z,2.30
2019-05-03T07:14:34.799Z,2.10
2019-05-03T07:15:34.970Z,2.30
2019-05-03T07:16:32.830Z,2.20
2019-05-03T07:17:34.915Z,2.20
2019-05-03T07:18:35.003Z,2.40
2019-05-03T07:19:32.833Z,2.20
2019-05-03T07:20:32.793Z,2.10
2019-05-03T07:21:32.771Z,2.20
2019-05-03T07:22:32.766Z,2.40
2019-05-03T07:23:34.746Z,2.40
2019-05-03T07:24:35.473Z,2.50
2019-05-03T07:25:34.480Z,2.30
2019-05-03T07:26:34.406Z,2.40
2019-05-03T07:27:34.865Z,2.40
2019-05-03T07:28:44.510Z,2.10
2019-05-03T07:29:33.713Z,2.50
2019-05-03T07:30:35.153Z,2.30
2019-05-03T07:31:32.664Z,2.40
2019-05-03T07:32:34.697Z,2.10
2019-05-03T07:33:34.525Z,2.40
2019-05-03T07:34:32.634Z,2.40
2019-05-03T07:35:32.627Z,2.30
2019-05-03T07:36:32.631Z,2.10
2019-05-03T07:37:34.755Z,2.20
2019-05-03T07:38:32.586Z,2.50
2019-05-03T07:39:34.695Z,2.00
2019-05-03T07:40:32.562Z,2.50
2019-05-03T07:41:32.570Z,2.10
2019-05-03T07:42:34.593Z,2.30
2019-05-03T07:43:32.582Z,2.20
2019-05-03T07:44:34.564Z,2.20
2019-05-03T07:45:32.518Z,1.90
2019-05-03T07:46:32.500Z,2.50
2019-05-03T07:47:32.500Z,2.10
2019-05-03T07:48:32.524Z,2.30
2019-05-03T07:49:32.469Z,2.10
2019-05-03T07:50:33.262Z,1.90
2019-05-03T07:51:32.441Z,2.10
2019-05-03T07:52:32.439Z,2.10
2019-05-03T07:53:34.726Z,2.20
2019-05-03T07:54:34.699Z,2.20
2019-05-03T07:55:32.402Z,2.20
2019-05-03T07:56:32.393Z,2.40
2019-05-03T07:57:32.377Z,2.90
2019-05-03T07:58:32.386Z,2.20
2019-05-03T07:59:32.389Z,2.10
2019-05-03T08:00:34.274Z,1.90
2019-05-03T08:01:32.330Z,1.90
2019-05-03T08:02:32.334Z,2.10
2019-05-03T08:03:32.356Z,2.10
2019-05-03T08:04:32.346Z,2.00
2019-05-03T08:05:32.291Z,2.20
2019-05-03T08:06:34.460Z,2.10
2019-05-03T08:07:32.274Z,2.20
2019-05-03T08:08:32.309Z,2.10
2019-05-03T08:09:32.248Z,2.00
2019-05-03T08:10:34.396Z,1.90
2019-05-03T08:11:32.230Z,2.10
2019-05-03T08:12:32.212Z,1.80
2019-05-03T08:13:32.204Z,2.20
2019-05-03T08:14:32.190Z,2.20
2019-05-03T08:15:32.228Z,2.00
2019-05-03T08:16:32.180Z,1.80
2019-05-03T08:17:32.159Z,2.00
2019-05-03T08:18:32.144Z,1.80
2019-05-03T08:19:32.135Z,1.70
2019-05-03T08:20:32.122Z,1.80
2019-05-03T08:21:32.162Z,1.50
2019-05-03T08:22:32.101Z,1.80
2019-05-03T08:23:32.096Z,1.70
2019-05-03T08:24:32.086Z,1.60
2019-05-03T08:25:32.075Z,1.80
2019-05-03T08:26:32.057Z,1.60
2019-05-03T08:27:32.115Z,2.00
2019-05-03T08:28:32.043Z,1.70
2019-05-03T08:29:32.038Z,1.60
2019-05-03T08:30:32.014Z,1.60
2019-05-03T08:31:32.002Z,1.50
2019-05-03T08:32:32.098Z,1.50
2019-05-03T08:33:31.992Z,1.70
2019-05-03T08:34:31.967Z,1.60
2019-05-03T08:35:31.986Z,1.70
2019-05-03T08:36:31.951Z,1.20
2019-05-03T08:37:31.935Z,1.30
2019-05-03T08:38:31.937Z,1.40
2019-05-03T08:39:31.912Z,1.30
2019-05-03T08:40:31.951Z,1.40
2019-05-03T08:41:31.890Z,1.40
2019-05-03T08:42:31.888Z,1.60
2019-05-03T08:43:31.868Z,1.50
2019-05-03T08:44:31.941Z,1.70
2019-05-03T08:45:31.890Z,1.40
2019-05-03T08:46:31.849Z,1.50
2019-05-03T08:47:31.824Z,1.40
2019-05-03T08:48:31.825Z,1.50
2019-05-03T08:49:31.807Z,1.40
2019-05-03T08:50:31.841Z,1.50
2019-05-03T08:51:31.786Z,1.50
2019-05-03T08:52:31.787Z,1.40
2019-05-03T08:53:31.765Z,1.70
2019-05-03T08:54:31.750Z,1.80
2019-05-03T08:55:31.788Z,1.60
2019-05-03T08:56:31.741Z,1.50
2019-05-03T08:57:31.722Z,1.90
2019-05-03T08:58:31.706Z,1.60
2019-05-03T08:59:32.719Z,1.30
2019-05-03T09:00:31.685Z,1.30
2019-05-03T09:01:31.714Z,1.30
2019-05-03T09:02:31.677Z,1.50
2019-05-03T09:03:31.685Z,1.50
2019-05-03T09:05:18.071Z,1.40
2019-05-03T09:05:31.651Z,1.40
2019-05-03T09:06:31.707Z,1.30
2019-05-03T09:07:31.611Z,1.50
2019-05-03T09:08:31.628Z,1.30
2019-05-03T09:09:31.598Z,1.30
2019-05-03T09:10:31.634Z,1.40
2019-05-03T09:11:34.347Z,1.50
2019-05-03T09:12:31.553Z,1.40
2019-05-03T09:13:31.546Z,1.30
2019-05-03T09:14:41.438Z,1.40
2019-05-03T09:15:35.097Z,1.70
2019-05-03T09:16:31.528Z,1.40
2019-05-03T09:17:31.519Z,1.70
2019-05-03T09:18:31.494Z,1.40
2019-05-03T09:19:31.485Z,1.50
2019-05-03T09:20:32.427Z,1.70
2019-05-03T09:21:31.562Z,1.80
2019-05-03T09:22:31.462Z,1.50
2019-05-03T09:23:31.439Z,1.70
2019-05-03T09:24:31.472Z,1.70
2019-05-03T09:25:31.423Z,1.50
2019-05-03T09:26:31.448Z,1.50
2019-05-03T09:27:31.386Z,1.70
2019-05-03T09:28:31.390Z,1.60
2019-05-03T09:29:41.076Z,1.80
2019-05-03T09:30:31.373Z,1.70
2019-05-03T09:31:31.347Z,1.70
2019-05-03T09:32:31.372Z,1.90
2019-05-03T09:33:31.333Z,1.70
2019-05-03T09:34:31.327Z,1.70
2019-05-03T09:35:33.771Z,1.60
2019-05-03T09:36:31.297Z,1.80
2019-05-03T09:37:31.317Z,2.90
2019-05-03T09:38:31.265Z,2.00
2019-05-03T09:39:31.265Z,2.00
2019-05-03T09:40:31.269Z,1.80
2019-05-03T09:41:31.241Z,1.60
2019-05-03T09:42:31.238Z,1.60
2019-05-03T09:43:31.257Z,1.30
2019-05-03T09:44:31.203Z,1.60
2019-05-03T09:45:31.197Z,1.50
2019-05-03T09:46:31.226Z,1.80
2019-05-03T09:47:31.181Z,1.70
2019-05-03T09:48:31.180Z,1.50
2019-05-03T09:49:31.161Z,1.50
2019-05-03T09:50:31.134Z,1.60
2019-05-03T09:51:31.165Z,1.90
2019-05-03T09:52:31.179Z,1.80
2019-05-03T09:53:31.113Z,1.50
2019-05-03T09:54:31.119Z,1.50
2019-05-03T09:55:31.084Z,1.90
2019-05-03T09:56:31.128Z,2.10
2019-05-03T09:57:31.099Z,1.80
2019-05-03T09:58:31.058Z,1.50
2019-05-03T09:59:31.046Z,1.70
2019-05-03T10:00:31.049Z,1.50
2019-05-03T10:01:31.018Z,1.50
2019-05-03T10:02:31.014Z,1.40
2019-05-03T10:03:31.083Z,1.60
2019-05-03T10:04:30.987Z,1.50
2019-05-03T10:05:30.988Z,1.40
2019-05-03T10:06:31.046Z,1.50
2019-05-03T10:07:30.953Z,1.40
2019-05-03T10:08:30.944Z,1.70
2019-05-03T10:09:30.950Z,1.60
2019-05-03T10:10:30.929Z,1.50
2019-05-03T10:11:30.922Z,1.50
2019-05-03T10:12:30.941Z,1.70
2019-05-03T10:13:30.887Z,1.30
2019-05-03T10:14:30.881Z,1.60
2019-05-03T10:15:30.864Z,1.60
2019-05-03T10:16:30.866Z,1.60
2019-05-03T10:17:30.906Z,1.50
2019-05-03T10:18:30.830Z,1.30
2019-05-03T10:19:37.627Z,1.60
2019-05-03T10:20:30.825Z,1.50
2019-05-03T10:21:30.808Z,1.20
2019-05-03T10:22:30.824Z,1.40
2019-05-03T10:23:30.811Z,1.50
2019-05-03T10:24:30.766Z,1.20
2019-05-03T10:25:30.779Z,1.70
2019-05-03T10:26:30.756Z,1.40
2019-05-03T10:27:30.739Z,1.50
2019-05-03T10:28:30.772Z,1.50
2019-05-03T10:29:30.741Z,1.40
2019-05-03T10:30:30.707Z,1.20
2019-05-03T10:31:30.687Z,1.40
2019-05-03T10:32:30.695Z,1.30
2019-05-03T10:33:30.703Z,1.80
2019-05-03T10:34:30.700Z,1.60
2019-05-03T10:35:30.644Z,1.40
2019-05-03T10:36:30.640Z,1.40
2019-05-03T10:37:30.625Z,1.40
2019-05-03T10:38:30.618Z,1.50
2019-05-03T10:39:30.643Z,1.40
2019-05-03T10:40:30.618Z,1.60
2019-05-03T10:41:30.579Z,1.60
2019-05-03T10:42:30.569Z,1.40
2019-05-03T10:43:30.574Z,1.60
2019-05-03T10:44:30.555Z,1.40
2019-05-03T10:45:30.583Z,1.60
2019-05-03T10:46:30.550Z,1.40
2019-05-03T10:47:30.560Z,1.30
2019-05-03T10:48:30.503Z,1.50
2019-05-03T10:49:30.516Z,1.40
2019-05-03T10:50:30.491Z,1.40
2019-05-03T10:51:30.498Z,1.50
2019-05-03T10:52:30.491Z,1.40
2019-05-03T10:53:30.463Z,1.30
2019-05-03T10:54:30.438Z,1.30
2019-05-03T10:55:30.432Z,1.30
2019-05-03T10:56:30.464Z,1.40
2019-05-03T10:57:30.459Z,1.20
2019-05-03T10:58:30.426Z,1.40
2019-05-03T10:59:30.389Z,1.40
2019-05-03T11:00:52.605Z,1.50
2019-05-03T11:01:31.371Z,1.20
2019-05-03T11:02:30.356Z,1.30
2019-05-03T11:03:30.382Z,1.30
2019-05-03T11:04:30.330Z,1.30
2019-05-03T11:05:30.324Z,1.40
2019-05-03T11:06:30.317Z,1.40
2019-05-03T11:07:30.337Z,1.40
2019-05-03T11:08:30.335Z,1.00
2019-05-03T11:09:30.303Z,1.40
2019-05-03T11:10:30.260Z,2.10
2019-05-03T11:11:30.255Z,1.50
2019-05-03T11:12:30.239Z,1.50
2019-05-03T11:13:30.282Z,2.30
2019-05-03T11:14:30.257Z,1.30
2019-05-03T11:15:30.246Z,1.40
2019-05-03T11:16:30.199Z,1.40
2019-05-03T11:17:30.214Z,1.50
2019-05-03T11:18:30.192Z,1.50
2019-05-03T11:19:30.211Z,1.40
2019-05-03T11:20:32.094Z,1.20
2019-05-03T11:21:31.103Z,1.20
2019-05-03T11:22:30.133Z,1.30
2019-05-03T11:23:30.135Z,1.30
2019-05-03T11:24:30.112Z,1.20
2019-05-03T11:25:30.158Z,1.30
2019-05-03T11:26:30.090Z,1.10
2019-05-03T11:27:30.080Z,1.20
2019-05-03T11:28:30.066Z,1.20
2019-05-03T11:29:30.066Z,1.20
2019-05-03T11:30:30.083Z,1.30
2019-05-03T11:31:30.046Z,1.30
2019-05-03T11:32:30.045Z,1.20
2019-05-03T11:33:30.019Z,1.30
2019-05-03T11:34:30.001Z,1.40
2019-05-03T11:35:30.077Z,1.30
2019-05-03T11:36:31.784Z,1.20
2019-05-03T11:37:29.984Z,1.10
2019-05-03T11:38:30.001Z,1.30
2019-05-03T11:39:29.950Z,1.40
2019-05-03T11:40:29.938Z,1.30
2019-05-03T11:41:32.751Z,2.10
2019-05-03T11:42:29.923Z,1.60
2019-05-03T11:43:29.917Z,1.30
2019-05-03T11:44:29.938Z,1.50
2019-05-03T11:45:29.883Z,1.40
2019-05-03T11:46:29.906Z,1.40
2019-05-03T11:47:29.897Z,1.40
2019-05-03T11:48:29.873Z,1.40
2019-05-03T11:49:29.869Z,1.30
2019-05-03T11:50:29.821Z,1.20
2019-05-03T11:51:29.822Z,1.30
2019-05-03T11:52:29.816Z,1.20
2019-05-03T11:53:29.794Z,1.20
2019-05-03T11:54:29.838Z,1.40
2019-05-03T11:55:29.768Z,1.40
2019-05-03T11:56:29.758Z,1.40
2019-05-03T11:57:29.746Z,1.40
2019-05-03T11:58:29.754Z,1.20
2019-05-03T11:59:29.765Z,1.40
2019-05-03T12:00:29.740Z,1.30
2019-05-03T12:01:29.708Z,1.30
2019-05-03T12:02:29.698Z,1.10
2019-05-03T12:03:29.988Z,1.30
2019-05-03T12:04:29.669Z,1.50
2019-05-03T12:05:29.704Z,1.10
2019-05-03T12:06:29.689Z,1.30
2019-05-03T12:07:38.833Z,1.10
2019-05-03T12:08:30.649Z,1.20
2019-05-03T12:09:29.625Z,1.10
2019-05-03T12:10:46.008Z,1.20
2019-05-03T12:11:30.634Z,1.20
2019-05-03T12:12:29.633Z,1.20
2019-05-03T12:13:29.572Z,1.20
2019-05-03T12:14:29.558Z,1.30
2019-05-03T12:15:29.573Z,1.20
2019-05-03T12:17:08.832Z,1.20
2019-05-03T12:17:30.966Z,1.20
2019-05-03T12:18:29.607Z,1.30
2019-05-03T12:19:31.542Z,1.30
2019-05-03T12:20:31.029Z,1.40
2019-05-03T12:21:30.702Z,1.20
2019-05-03T12:22:30.026Z,1.40
2019-05-03T12:23:31.510Z,1.70
2019-05-03T12:24:30.132Z,1.60
2019-05-03T12:25:30.014Z,1.30
2019-05-03T12:26:40.800Z,1.40
2019-05-03T12:27:29.421Z,1.20
2019-05-03T12:28:29.461Z,1.30
2019-05-03T12:29:29.423Z,1.20
2019-05-03T12:30:29.384Z,1.60
2019-05-03T12:31:37.088Z,1.20
2019-05-03T12:32:30.375Z,1.40
2019-05-03T12:33:29.407Z,1.50
2019-05-03T12:34:29.353Z,1.40
2019-05-03T12:35:29.361Z,1.30
2019-05-03T12:36:29.364Z,1.30
2019-05-03T12:37:29.310Z,1.20
2019-05-03T12:38:29.327Z,1.30
2019-05-03T12:39:30.495Z,1.40
2019-05-03T12:40:29.287Z,1.20
2019-05-03T12:41:29.266Z,1.10
2019-05-03T12:42:29.274Z,1.30
2019-05-03T12:43:29.254Z,1.10
2019-05-03T12:44:29.266Z,1.40
2019-05-03T12:45:29.245Z,1.40
2019-05-03T12:46:29.234Z,1.40
2019-05-03T12:47:29.205Z,1.30
2019-05-03T12:48:29.194Z,1.40
2019-05-03T12:49:29.195Z,1.30
2019-05-03T12:50:29.202Z,1.20
2019-05-03T12:51:29.194Z,1.40
2019-05-03T12:52:29.732Z,1.40
2019-05-03T12:53:29.132Z,1.30
2019-05-03T12:54:29.126Z,1.50
2019-05-03T12:55:30.151Z,1.20
2019-05-03T12:56:32.626Z,1.30
2019-05-03T12:57:29.109Z,1.30
2019-05-03T12:58:29.073Z,1.40
2019-05-03T12:59:29.063Z,1.20
2019-05-03T13:00:29.058Z,1.60
2019-05-03T13:01:40.562Z,1.40
2019-05-03T13:02:29.039Z,1.50
2019-05-03T13:03:29.040Z,1.50
2019-05-03T13:04:29.013Z,1.30
2019-05-03T13:05:29.050Z,1.60
2019-05-03T13:06:28.995Z,1.50
2019-05-03T13:07:29.010Z,1.30
2019-05-03T13:08:28.977Z,1.30
2019-05-03T13:09:28.989Z,1.40
2019-05-03T13:10:28.990Z,1.30
2019-05-03T13:11:28.954Z,1.40
2019-05-03T13:12:28.927Z,1.40
2019-05-03T13:13:28.950Z,1.30
2019-05-03T13:14:28.956Z,1.20
2019-05-03T13:15:28.916Z,1.40
2019-05-03T13:16:28.885Z,1.30
2019-05-03T13:17:28.871Z,1.40
2019-05-03T13:18:28.876Z,1.30